weather.gov     
National Weather Service

Terminal Aerodrome Forecast
NWS Homepage
This page is being discontinued on March 12, 2014.
The same data is available at this site. Please update your bookmarks.
Thank you, and we apologize for the inconvenience.
Please send an email to SR-SRH.Webmaster@noaa.gov with any concerns.


Current Version
Previous Version:    01  02  03  04  05  06  07  08  09  10  11  12  13  14  15  16  17  18  19  20  21  22  23  24  25  26  27  28  29  30  
   31  32  33  34  35  36  37  38  39  40  41  42  43  44  45  46  47  
[Printable]
697
FTUS41 KRLX 291700
TAFCRW
TAF
KCRW 291720Z 2918/3018 20011G19KT P6SM SCT060
     FM292000 22011G19KT P6SM BKN040
     FM292300 25011G19KT P6SM OVC025
     FM300200 27010G17KT 6SM -RA BR OVC015
     FM300300 27010G17KT 3SM -RASN OVC010
     FM300500 27010G17KT 1SM -SN OVC008
     FM301400 31012G20KT 3SM -SHSN BKN025=


U.S. Dept. of Commerce
NOAA National Weather Service
1325 East West Highway
Silver Spring, MD 20910
E-mail: w-nws.webmaster@noaa.gov
Page last modified: May 16, 2007
NATIONAL WEATHER SERVICE: for Safety, for Work, for Fun - FOR LIFE